sensor_id;sensor_type;location;lat;lon;timestamp;temperature;humidity
57576;DHT22;43412;-33.800;150.804;2023-04-25T00:00:29;28.20;96.70
57576;DHT22;43412;-33.800;150.804;2023-04-25T00:02:56;28.20;97.70
57576;DHT22;43412;-33.800;150.804;2023-04-25T00:05:26;28.40;97.50
57576;DHT22;43412;-33.800;150.804;2023-04-25T00:07:54;28.20;97.20
57576;DHT22;43412;-33.800;150.804;2023-04-25T00:10:22;28.10;97.60
57576;DHT22;43412;-33.800;150.804;2023-04-25T00:12:49;28.70;97.60
57576;DHT22;43412;-33.800;150.804;2023-04-25T00:15:16;29.40;97.20
57576;DHT22;43412;-33.800;150.804;2023-04-25T00:17:44;30.10;97.00
57576;DHT22;43412;-33.800;150.804;2023-04-25T00:20:12;30.40;95.00
57576;DHT22;43412;-33.800;150.804;2023-04-25T00:22:39;30.70;94.30
57576;DHT22;43412;-33.800;150.804;2023-04-25T00:25:07;30.50;94.40
57576;DHT22;43412;-33.800;150.804;2023-04-25T00:27:34;30.50;94.50
57576;DHT22;43412;-33.800;150.804;2023-04-25T00:30:02;30.30;94.40
57576;DHT22;43412;-33.800;150.804;2023-04-25T00:32:29;29.70;94.10
57576;DHT22;43412;-33.800;150.804;2023-04-25T00:34:56;29.10;94.60
57576;DHT22;43412;-33.800;150.804;2023-04-25T00:37:24;28.80;95.80
57576;DHT22;43412;-33.800;150.804;2023-04-25T00:39:51;28.90;95.20
57576;DHT22;43412;-33.800;150.804;2023-04-25T00:42:21;28.70;95.60
57576;DHT22;43412;-33.800;150.804;2023-04-25T00:44:48;29.10;95.40
57576;DHT22;43412;-33.800;150.804;2023-04-25T00:47:17;29.60;94.40
57576;DHT22;43412;-33.800;150.804;2023-04-25T00:49:44;30.10;93.80
57576;DHT22;43412;-33.800;150.804;2023-04-25T00:52:12;30.10;93.50
57576;DHT22;43412;-33.800;150.804;2023-04-25T00:54:39;29.20;94.10
57576;DHT22;43412;-33.800;150.804;2023-04-25T00:57:07;28.80;95.20
57576;DHT22;43412;-33.800;150.804;2023-04-25T00:59:34;29.10;94.50
57576;DHT22;43412;-33.800;150.804;2023-04-25T01:02:05;29.60;93.70
57576;DHT22;43412;-33.800;150.804;2023-04-25T01:04:33;29.70;93.50
57576;DHT22;43412;-33.800;150.804;2023-04-25T01:07:01;29.80;93.40
57576;DHT22;43412;-33.800;150.804;2023-04-25T01:09:31;30.00;93.10
57576;DHT22;43412;-33.800;150.804;2023-04-25T01:11:58;29.50;93.20
57576;DHT22;43412;-33.800;150.804;2023-04-25T01:14:27;29.60;93.10
57576;DHT22;43412;-33.800;150.804;2023-04-25T01:16:55;29.90;92.50
57576;DHT22;43412;-33.800;150.804;2023-04-25T01:19:22;30.20;92.50
57576;DHT22;43412;-33.800;150.804;2023-04-25T01:21:50;30.60;92.30
57576;DHT22;43412;-33.800;150.804;2023-04-25T01:24:18;30.70;92.40
57576;DHT22;43412;-33.800;150.804;2023-04-25T01:26:46;29.90;92.40
57576;DHT22;43412;-33.800;150.804;2023-04-25T01:29:18;29.60;91.70
57576;DHT22;43412;-33.800;150.804;2023-04-25T01:31:46;29.10;92.10
57576;DHT22;43412;-33.800;150.804;2023-04-25T01:34:14;29.50;92.30
57576;DHT22;43412;-33.800;150.804;2023-04-25T01:36:41;29.70;91.90
57576;DHT22;43412;-33.800;150.804;2023-04-25T01:39:09;29.50;92.20
57576;DHT22;43412;-33.800;150.804;2023-04-25T01:41:36;29.30;92.60
57576;DHT22;43412;-33.800;150.804;2023-04-25T01:44:04;29.60;91.70
57576;DHT22;43412;-33.800;150.804;2023-04-25T01:46:32;29.60;91.50
57576;DHT22;43412;-33.800;150.804;2023-04-25T01:48:59;29.40;91.40
57576;DHT22;43412;-33.800;150.804;2023-04-25T01:51:27;29.40;92.10
57576;DHT22;43412;-33.800;150.804;2023-04-25T01:53:55;29.70;91.50
57576;DHT22;43412;-33.800;150.804;2023-04-25T01:56:23;29.30;92.10
57576;DHT22;43412;-33.800;150.804;2023-04-25T01:58:51;29.50;92.50
57576;DHT22;43412;-33.800;150.804;2023-04-25T02:01:19;30.00;91.90
57576;DHT22;43412;-33.800;150.804;2023-04-25T02:03:46;30.20;91.40
57576;DHT22;43412;-33.800;150.804;2023-04-25T02:06:13;30.10;91.20
57576;DHT22;43412;-33.800;150.804;2023-04-25T02:08:41;29.90;91.30
57576;DHT22;43412;-33.800;150.804;2023-04-25T02:11:08;29.80;91.20
57576;DHT22;43412;-33.800;150.804;2023-04-25T02:13:35;29.80;91.50
57576;DHT22;43412;-33.800;150.804;2023-04-25T02:16:03;29.90;91.50
57576;DHT22;43412;-33.800;150.804;2023-04-25T02:18:30;29.80;90.80
57576;DHT22;43412;-33.800;150.804;2023-04-25T02:21:01;30.00;91.70
57576;DHT22;43412;-33.800;150.804;2023-04-25T02:23:29;30.10;91.30
57576;DHT22;43412;-33.800;150.804;2023-04-25T02:25:57;29.80;90.70
57576;DHT22;43412;-33.800;150.804;2023-04-25T02:28:24;30.00;91.40
57576;DHT22;43412;-33.800;150.804;2023-04-25T02:30:55;29.80;90.40
57576;DHT22;43412;-33.800;150.804;2023-04-25T02:33:22;29.70;91.50
57576;DHT22;43412;-33.800;150.804;2023-04-25T02:35:49;30.00;91.40
57576;DHT22;43412;-33.800;150.804;2023-04-25T02:38:16;30.00;90.50
57576;DHT22;43412;-33.800;150.804;2023-04-25T02:40:44;30.20;90.80
57576;DHT22;43412;-33.800;150.804;2023-04-25T02:43:11;30.50;91.00
57576;DHT22;43412;-33.800;150.804;2023-04-25T02:45:38;30.40;90.70
57576;DHT22;43412;-33.800;150.804;2023-04-25T02:48:06;30.30;90.50
57576;DHT22;43412;-33.800;150.804;2023-04-25T02:50:33;30.40;90.40
57576;DHT22;43412;-33.800;150.804;2023-04-25T02:53:01;30.50;91.00
57576;DHT22;43412;-33.800;150.804;2023-04-25T02:55:28;30.30;90.50
57576;DHT22;43412;-33.800;150.804;2023-04-25T02:57:55;29.70;90.30
57576;DHT22;43412;-33.800;150.804;2023-04-25T03:00:23;28.70;91.10
57576;DHT22;43412;-33.800;150.804;2023-04-25T03:02:50;27.90;91.90
57576;DHT22;43412;-33.800;150.804;2023-04-25T03:05:17;27.30;92.50
57576;DHT22;43412;-33.800;150.804;2023-04-25T03:07:45;27.40;93.50
57576;DHT22;43412;-33.800;150.804;2023-04-25T03:10:13;27.70;92.40
57576;DHT22;43412;-33.800;150.804;2023-04-25T03:12:40;28.10;92.40
57576;DHT22;43412;-33.800;150.804;2023-04-25T03:15:08;28.60;91.70
57576;DHT22;43412;-33.800;150.804;2023-04-25T03:17:35;28.40;91.40
57576;DHT22;43412;-33.800;150.804;2023-04-25T03:20:03;27.80;91.60
57576;DHT22;43412;-33.800;150.804;2023-04-25T03:22:30;27.40;92.40
57576;DHT22;43412;-33.800;150.804;2023-04-25T03:25:00;27.30;93.40
57576;DHT22;43412;-33.800;150.804;2023-04-25T03:27:28;27.40;93.60
57576;DHT22;43412;-33.800;150.804;2023-04-25T03:29:56;27.30;93.00
57576;DHT22;43412;-33.800;150.804;2023-04-25T03:32:23;27.50;93.30
57576;DHT22;43412;-33.800;150.804;2023-04-25T03:34:50;27.80;92.50
57576;DHT22;43412;-33.800;150.804;2023-04-25T03:37:18;28.00;92.70
57576;DHT22;43412;-33.800;150.804;2023-04-25T03:39:45;27.90;92.50
57576;DHT22;43412;-33.800;150.804;2023-04-25T03:42:12;27.70;92.50
57576;DHT22;43412;-33.800;150.804;2023-04-25T03:44:44;27.70;92.70
57576;DHT22;43412;-33.800;150.804;2023-04-25T03:47:11;27.70;92.80
57576;DHT22;43412;-33.800;150.804;2023-04-25T03:49:38;27.80;92.70
57576;DHT22;43412;-33.800;150.804;2023-04-25T03:52:06;27.90;92.80
57576;DHT22;43412;-33.800;150.804;2023-04-25T03:54:33;27.90;91.80
57576;DHT22;43412;-33.800;150.804;2023-04-25T03:57:01;27.80;92.60
57576;DHT22;43412;-33.800;150.804;2023-04-25T03:59:28;27.90;91.70
57576;DHT22;43412;-33.800;150.804;2023-04-25T04:01:55;28.10;92.00
57576;DHT22;43412;-33.800;150.804;2023-04-25T04:04:23;28.10;91.30
57576;DHT22;43412;-33.800;150.804;2023-04-25T04:06:50;28.00;91.40
57576;DHT22;43412;-33.800;150.804;2023-04-25T04:09:19;28.10;92.20
57576;DHT22;43412;-33.800;150.804;2023-04-25T04:11:47;27.60;91.80
57576;DHT22;43412;-33.800;150.804;2023-04-25T04:14:14;27.40;91.90
57576;DHT22;43412;-33.800;150.804;2023-04-25T04:16:42;27.10;92.20
57576;DHT22;43412;-33.800;150.804;2023-04-25T04:19:09;27.00;92.30
57576;DHT22;43412;-33.800;150.804;2023-04-25T04:21:36;27.00;92.20
57576;DHT22;43412;-33.800;150.804;2023-04-25T04:24:04;26.90;92.30
57576;DHT22;43412;-33.800;150.804;2023-04-25T04:26:32;26.70;92.70
57576;DHT22;43412;-33.800;150.804;2023-04-25T04:29:00;26.70;92.90
57576;DHT22;43412;-33.800;150.804;2023-04-25T04:31:28;26.80;92.90
57576;DHT22;43412;-33.800;150.804;2023-04-25T04:33:56;27.00;92.90
57576;DHT22;43412;-33.800;150.804;2023-04-25T04:36:23;27.10;92.20
57576;DHT22;43412;-33.800;150.804;2023-04-25T04:38:53;27.10;92.30
57576;DHT22;43412;-33.800;150.804;2023-04-25T04:41:20;27.10;92.80
57576;DHT22;43412;-33.800;150.804;2023-04-25T04:43:47;27.20;92.50
57576;DHT22;43412;-33.800;150.804;2023-04-25T04:46:15;27.30;92.30
57576;DHT22;43412;-33.800;150.804;2023-04-25T04:48:42;27.20;92.30
57576;DHT22;43412;-33.800;150.804;2023-04-25T04:51:10;27.20;92.10
57576;DHT22;43412;-33.800;150.804;2023-04-25T04:53:38;27.10;92.30
57576;DHT22;43412;-33.800;150.804;2023-04-25T04:56:05;27.00;93.10
57576;DHT22;43412;-33.800;150.804;2023-04-25T04:58:33;26.90;92.10
57576;DHT22;43412;-33.800;150.804;2023-04-25T05:01:01;26.70;92.70
57576;DHT22;43412;-33.800;150.804;2023-04-25T05:03:29;26.50;92.40
57576;DHT22;43412;-33.800;150.804;2023-04-25T05:05:56;26.30;93.30
57576;DHT22;43412;-33.800;150.804;2023-04-25T05:08:24;26.10;92.80
57576;DHT22;43412;-33.800;150.804;2023-04-25T05:10:51;25.80;92.90
57576;DHT22;43412;-33.800;150.804;2023-04-25T05:13:18;25.80;93.20
57576;DHT22;43412;-33.800;150.804;2023-04-25T05:15:49;25.70;94.00
57576;DHT22;43412;-33.800;150.804;2023-04-25T05:18:16;25.80;93.60
57576;DHT22;43412;-33.800;150.804;2023-04-25T05:20:44;25.90;93.60
57576;DHT22;43412;-33.800;150.804;2023-04-25T05:23:11;26.00;93.60
57576;DHT22;43412;-33.800;150.804;2023-04-25T05:25:38;26.00;93.50
57576;DHT22;43412;-33.800;150.804;2023-04-25T05:28:06;26.10;93.20
57576;DHT22;43412;-33.800;150.804;2023-04-25T05:30:34;26.20;93.30
57576;DHT22;43412;-33.800;150.804;2023-04-25T05:33:01;26.30;93.30
57576;DHT22;43412;-33.800;150.804;2023-04-25T05:35:29;26.30;93.20
57576;DHT22;43412;-33.800;150.804;2023-04-25T05:37:57;26.30;93.10
57576;DHT22;43412;-33.800;150.804;2023-04-25T05:40:24;26.30;93.20
57576;DHT22;43412;-33.800;150.804;2023-04-25T05:42:51;26.30;93.10
57576;DHT22;43412;-33.800;150.804;2023-04-25T05:45:19;26.30;93.00
57576;DHT22;43412;-33.800;150.804;2023-04-25T05:47:46;26.30;93.30
57576;DHT22;43412;-33.800;150.804;2023-04-25T05:50:13;26.20;93.10
57576;DHT22;43412;-33.800;150.804;2023-04-25T05:52:41;26.20;93.10
57576;DHT22;43412;-33.800;150.804;2023-04-25T05:55:08;26.30;93.20
57576;DHT22;43412;-33.800;150.804;2023-04-25T05:57:36;26.30;93.20
57576;DHT22;43412;-33.800;150.804;2023-04-25T06:00:03;26.30;93.30
57576;DHT22;43412;-33.800;150.804;2023-04-25T06:02:35;26.20;93.10
57576;DHT22;43412;-33.800;150.804;2023-04-25T06:05:26;26.10;93.20
57576;DHT22;43412;-33.800;150.804;2023-04-25T06:07:54;25.90;93.30
57576;DHT22;43412;-33.800;150.804;2023-04-25T06:10:21;25.80;93.70
57576;DHT22;43412;-33.800;150.804;2023-04-25T06:12:49;25.80;93.70
57576;DHT22;43412;-33.800;150.804;2023-04-25T06:15:16;25.60;93.70
57576;DHT22;43412;-33.800;150.804;2023-04-25T06:17:44;25.40;93.70
57576;DHT22;43412;-33.800;150.804;2023-04-25T06:20:11;25.20;94.00
57576;DHT22;43412;-33.800;150.804;2023-04-25T06:22:39;24.90;94.20
57576;DHT22;43412;-33.800;150.804;2023-04-25T06:25:06;24.70;94.30
57576;DHT22;43412;-33.800;150.804;2023-04-25T06:27:37;24.60;94.20
57576;DHT22;43412;-33.800;150.804;2023-04-25T06:30:04;24.50;94.40
57576;DHT22;43412;-33.800;150.804;2023-04-25T06:32:32;24.40;94.60
57576;DHT22;43412;-33.800;150.804;2023-04-25T06:35:01;24.30;94.60
57576;DHT22;43412;-33.800;150.804;2023-04-25T06:37:28;24.30;95.10
57576;DHT22;43412;-33.800;150.804;2023-04-25T06:39:55;24.20;95.20
57576;DHT22;43412;-33.800;150.804;2023-04-25T06:42:23;24.20;95.20
57576;DHT22;43412;-33.800;150.804;2023-04-25T06:44:50;24.10;95.10
57576;DHT22;43412;-33.800;150.804;2023-04-25T06:47:17;24.00;95.10
57576;DHT22;43412;-33.800;150.804;2023-04-25T06:49:45;23.90;95.60
57576;DHT22;43412;-33.800;150.804;2023-04-25T06:52:12;23.90;95.40
57576;DHT22;43412;-33.800;150.804;2023-04-25T06:54:39;23.90;95.50
57576;DHT22;43412;-33.800;150.804;2023-04-25T06:57:07;23.80;95.80
57576;DHT22;43412;-33.800;150.804;2023-04-25T06:59:34;23.80;96.00
57576;DHT22;43412;-33.800;150.804;2023-04-25T07:02:01;23.70;96.00
57576;DHT22;43412;-33.800;150.804;2023-04-25T07:04:30;23.70;96.10
57576;DHT22;43412;-33.800;150.804;2023-04-25T07:06:57;23.50;96.30
57576;DHT22;43412;-33.800;150.804;2023-04-25T07:09:24;23.50;96.30
57576;DHT22;43412;-33.800;150.804;2023-04-25T07:11:52;23.40;96.70
57576;DHT22;43412;-33.800;150.804;2023-04-25T07:14:19;23.30;97.00
57576;DHT22;43412;-33.800;150.804;2023-04-25T07:16:47;23.20;98.00
57576;DHT22;43412;-33.800;150.804;2023-04-25T07:19:14;23.10;98.40
57576;DHT22;43412;-33.800;150.804;2023-04-25T07:21:44;23.00;99.30
57576;DHT22;43412;-33.800;150.804;2023-04-25T07:24:12;22.80;99.80
57576;DHT22;43412;-33.800;150.804;2023-04-25T07:26:39;22.60;99.90
57576;DHT22;43412;-33.800;150.804;2023-04-25T07:29:06;22.40;99.90
57576;DHT22;43412;-33.800;150.804;2023-04-25T07:31:34;22.30;99.90
57576;DHT22;43412;-33.800;150.804;2023-04-25T07:34:01;22.20;99.90
57576;DHT22;43412;-33.800;150.804;2023-04-25T07:36:29;22.10;99.90
57576;DHT22;43412;-33.800;150.804;2023-04-25T07:38:57;21.90;99.90
57576;DHT22;43412;-33.800;150.804;2023-04-25T07:41:24;21.80;99.90
57576;DHT22;43412;-33.800;150.804;2023-04-25T07:43:52;21.70;99.90
57576;DHT22;43412;-33.800;150.804;2023-04-25T07:46:19;21.60;99.90
57576;DHT22;43412;-33.800;150.804;2023-04-25T07:48:46;21.50;99.90
57576;DHT22;43412;-33.800;150.804;2023-04-25T07:51:14;21.40;99.90
57576;DHT22;43412;-33.800;150.804;2023-04-25T07:53:41;21.30;99.90
57576;DHT22;43412;-33.800;150.804;2023-04-25T07:56:08;21.30;99.90
57576;DHT22;43412;-33.800;150.804;2023-04-25T07:58:36;21.20;99.90
57576;DHT22;43412;-33.800;150.804;2023-04-25T08:01:03;21.10;99.90
57576;DHT22;43412;-33.800;150.804;2023-04-25T08:03:31;21.00;99.90
57576;DHT22;43412;-33.800;150.804;2023-04-25T08:05:58;20.90;99.90
57576;DHT22;43412;-33.800;150.804;2023-04-25T08:08:28;20.90;99.90
57576;DHT22;43412;-33.800;150.804;2023-04-25T08:10:56;20.80;99.90
57576;DHT22;43412;-33.800;150.804;2023-04-25T08:13:23;20.80;99.90
57576;DHT22;43412;-33.800;150.804;2023-04-25T08:15:50;20.70;99.90
57576;DHT22;43412;-33.800;150.804;2023-04-25T08:18:18;20.70;99.90
57576;DHT22;43412;-33.800;150.804;2023-04-25T08:20:45;20.60;99.90
57576;DHT22;43412;-33.800;150.804;2023-04-25T08:23:12;20.60;99.90
57576;DHT22;43412;-33.800;150.804;2023-04-25T08:25:40;20.40;99.90
57576;DHT22;43412;-33.800;150.804;2023-04-25T08:28:08;20.40;99.90
57576;DHT22;43412;-33.800;150.804;2023-04-25T08:30:37;20.40;99.90
57576;DHT22;43412;-33.800;150.804;2023-04-25T08:33:04;20.30;99.90
57576;DHT22;43412;-33.800;150.804;2023-04-25T08:35:32;20.30;99.90
57576;DHT22;43412;-33.800;150.804;2023-04-25T08:38:00;20.30;99.90
57576;DHT22;43412;-33.800;150.804;2023-04-25T08:40:28;20.20;99.90
57576;DHT22;43412;-33.800;150.804;2023-04-25T08:43:01;20.10;99.90
57576;DHT22;43412;-33.800;150.804;2023-04-25T08:45:31;20.10;99.90
57576;DHT22;43412;-33.800;150.804;2023-04-25T08:47:59;20.00;99.90
57576;DHT22;43412;-33.800;150.804;2023-04-25T08:50:27;20.00;99.90
57576;DHT22;43412;-33.800;150.804;2023-04-25T08:52:55;19.90;99.90
57576;DHT22;43412;-33.800;150.804;2023-04-25T08:55:28;19.90;99.90
57576;DHT22;43412;-33.800;150.804;2023-04-25T08:57:56;19.80;99.90
57576;DHT22;43412;-33.800;150.804;2023-04-25T09:00:24;19.80;99.90
57576;DHT22;43412;-33.800;150.804;2023-04-25T09:02:53;19.80;99.90
57576;DHT22;43412;-33.800;150.804;2023-04-25T09:05:22;19.70;99.90
57576;DHT22;43412;-33.800;150.804;2023-04-25T09:07:49;19.60;99.90
57576;DHT22;43412;-33.800;150.804;2023-04-25T09:10:17;19.60;99.90
57576;DHT22;43412;-33.800;150.804;2023-04-25T09:12:44;19.50;99.90
57576;DHT22;43412;-33.800;150.804;2023-04-25T09:15:13;19.40;99.90
57576;DHT22;43412;-33.800;150.804;2023-04-25T09:17:42;19.30;99.90
57576;DHT22;43412;-33.800;150.804;2023-04-25T09:20:13;19.30;99.90
57576;DHT22;43412;-33.800;150.804;2023-04-25T09:22:40;19.30;99.90
57576;DHT22;43412;-33.800;150.804;2023-04-25T09:25:10;19.20;99.90
57576;DHT22;43412;-33.800;150.804;2023-04-25T09:27:58;19.20;99.90
57576;DHT22;43412;-33.800;150.804;2023-04-25T09:30:35;19.10;99.90
57576;DHT22;43412;-33.800;150.804;2023-04-25T09:33:12;19.00;99.90
57576;DHT22;43412;-33.800;150.804;2023-04-25T09:35:45;18.90;99.90
57576;DHT22;43412;-33.800;150.804;2023-04-25T09:38:19;18.90;99.90
57576;DHT22;43412;-33.800;150.804;2023-04-25T09:40:48;18.80;99.90
57576;DHT22;43412;-33.800;150.804;2023-04-25T09:43:20;18.70;99.90
57576;DHT22;43412;-33.800;150.804;2023-04-25T09:45:49;18.70;99.90
57576;DHT22;43412;-33.800;150.804;2023-04-25T09:48:22;18.60;99.90
57576;DHT22;43412;-33.800;150.804;2023-04-25T09:51:12;18.50;99.90
57576;DHT22;43412;-33.800;150.804;2023-04-25T09:53:46;18.50;99.90
57576;DHT22;43412;-33.800;150.804;2023-04-25T09:56:17;18.50;99.90
57576;DHT22;43412;-33.800;150.804;2023-04-25T09:58:47;18.50;99.90
57576;DHT22;43412;-33.800;150.804;2023-04-25T10:01:17;18.50;99.90
57576;DHT22;43412;-33.800;150.804;2023-04-25T10:03:47;18.50;99.90
57576;DHT22;43412;-33.800;150.804;2023-04-25T10:06:19;18.50;99.90
57576;DHT22;43412;-33.800;150.804;2023-04-25T10:08:50;18.40;99.90
57576;DHT22;43412;-33.800;150.804;2023-04-25T10:11:18;18.40;99.90
57576;DHT22;43412;-33.800;150.804;2023-04-25T10:13:46;18.30;99.90
57576;DHT22;43412;-33.800;150.804;2023-04-25T10:16:14;18.20;99.90
57576;DHT22;43412;-33.800;150.804;2023-04-25T10:18:42;18.20;99.90
57576;DHT22;43412;-33.800;150.804;2023-04-25T10:21:11;18.10;99.90
57576;DHT22;43412;-33.800;150.804;2023-04-25T10:23:40;18.00;99.90
57576;DHT22;43412;-33.800;150.804;2023-04-25T10:26:09;18.00;99.90
57576;DHT22;43412;-33.800;150.804;2023-04-25T10:29:01;17.90;99.90
57576;DHT22;43412;-33.800;150.804;2023-04-25T10:31:32;17.80;99.90
57576;DHT22;43412;-33.800;150.804;2023-04-25T10:34:00;17.80;99.90
57576;DHT22;43412;-33.800;150.804;2023-04-25T10:36:31;17.80;99.90
57576;DHT22;43412;-33.800;150.804;2023-04-25T10:39:06;17.80;99.90
57576;DHT22;43412;-33.800;150.804;2023-04-25T10:41:57;17.80;99.90
57576;DHT22;43412;-33.800;150.804;2023-04-25T10:44:29;17.70;99.90
57576;DHT22;43412;-33.800;150.804;2023-04-25T10:47:00;17.70;99.90
57576;DHT22;43412;-33.800;150.804;2023-04-25T10:49:40;17.60;99.90
57576;DHT22;43412;-33.800;150.804;2023-04-25T10:52:27;17.60;99.90
57576;DHT22;43412;-33.800;150.804;2023-04-25T10:55:06;17.60;99.90
57576;DHT22;43412;-33.800;150.804;2023-04-25T10:57:44;17.50;99.90
57576;DHT22;43412;-33.800;150.804;2023-04-25T11:00:20;17.50;99.90
57576;DHT22;43412;-33.800;150.804;2023-04-25T11:02:58;17.50;99.90
57576;DHT22;43412;-33.800;150.804;2023-04-25T11:05:34;17.40;99.90
57576;DHT22;43412;-33.800;150.804;2023-04-25T11:08:02;17.40;99.90
57576;DHT22;43412;-33.800;150.804;2023-04-25T11:10:31;17.40;99.90
57576;DHT22;43412;-33.800;150.804;2023-04-25T11:12:59;17.40;99.90
57576;DHT22;43412;-33.800;150.804;2023-04-25T11:15:27;17.40;99.90
57576;DHT22;43412;-33.800;150.804;2023-04-25T11:17:55;17.40;99.90
57576;DHT22;43412;-33.800;150.804;2023-04-25T11:20:25;17.30;99.90
57576;DHT22;43412;-33.800;150.804;2023-04-25T11:22:58;17.20;99.90
57576;DHT22;43412;-33.800;150.804;2023-04-25T11:25:27;17.20;99.90
57576;DHT22;43412;-33.800;150.804;2023-04-25T11:27:56;17.10;99.90
57576;DHT22;43412;-33.800;150.804;2023-04-25T11:30:25;17.00;99.90
57576;DHT22;43412;-33.800;150.804;2023-04-25T11:32:53;17.00;99.90
57576;DHT22;43412;-33.800;150.804;2023-04-25T11:35:21;16.90;99.90
57576;DHT22;43412;-33.800;150.804;2023-04-25T11:37:49;16.90;99.90
57576;DHT22;43412;-33.800;150.804;2023-04-25T11:40:17;16.80;99.90
57576;DHT22;43412;-33.800;150.804;2023-04-25T11:42:46;16.80;99.90
57576;DHT22;43412;-33.800;150.804;2023-04-25T11:45:14;16.80;99.90
57576;DHT22;43412;-33.800;150.804;2023-04-25T11:47:42;16.80;99.90
57576;DHT22;43412;-33.800;150.804;2023-04-25T11:50:10;16.70;99.90
57576;DHT22;43412;-33.800;150.804;2023-04-25T11:52:42;16.70;99.90
57576;DHT22;43412;-33.800;150.804;2023-04-25T11:57:42;16.60;99.90
57576;DHT22;43412;-33.800;150.804;2023-04-25T12:00:18;16.60;99.90
57576;DHT22;43412;-33.800;150.804;2023-04-25T12:02:50;16.60;99.90
57576;DHT22;43412;-33.800;150.804;2023-04-25T12:05:18;16.60;99.90
57576;DHT22;43412;-33.800;150.804;2023-04-25T12:07:47;16.70;99.90
57576;DHT22;43412;-33.800;150.804;2023-04-25T12:10:16;16.70;99.90
57576;DHT22;43412;-33.800;150.804;2023-04-25T12:12:46;16.60;99.90
57576;DHT22;43412;-33.800;150.804;2023-04-25T12:15:40;16.70;99.90
57576;DHT22;43412;-33.800;150.804;2023-04-25T12:18:07;16.70;99.90
57576;DHT22;43412;-33.800;150.804;2023-04-25T12:20:36;16.60;99.90
57576;DHT22;43412;-33.800;150.804;2023-04-25T12:23:06;16.60;99.90
57576;DHT22;43412;-33.800;150.804;2023-04-25T12:25:39;16.70;99.90
57576;DHT22;43412;-33.800;150.804;2023-04-25T12:28:22;16.70;99.90
57576;DHT22;43412;-33.800;150.804;2023-04-25T12:31:02;16.70;99.90
57576;DHT22;43412;-33.800;150.804;2023-04-25T12:33:35;16.70;99.90
57576;DHT22;43412;-33.800;150.804;2023-04-25T12:36:04;16.70;99.90
57576;DHT22;43412;-33.800;150.804;2023-04-25T12:38:39;16.70;99.90
57576;DHT22;43412;-33.800;150.804;2023-04-25T12:41:07;16.80;99.90
57576;DHT22;43412;-33.800;150.804;2023-04-25T12:43:35;16.80;99.90
57576;DHT22;43412;-33.800;150.804;2023-04-25T12:46:02;16.80;99.90
57576;DHT22;43412;-33.800;150.804;2023-04-25T12:48:30;16.80;99.90
57576;DHT22;43412;-33.800;150.804;2023-04-25T12:50:57;16.70;99.90
57576;DHT22;43412;-33.800;150.804;2023-04-25T12:53:25;16.70;99.90
57576;DHT22;43412;-33.800;150.804;2023-04-25T12:55:53;16.70;99.90
57576;DHT22;43412;-33.800;150.804;2023-04-25T12:58:20;16.60;99.90
57576;DHT22;43412;-33.800;150.804;2023-04-25T13:00:48;16.60;99.90
57576;DHT22;43412;-33.800;150.804;2023-04-25T13:03:18;16.60;99.90
57576;DHT22;43412;-33.800;150.804;2023-04-25T13:05:46;16.50;99.90
57576;DHT22;43412;-33.800;150.804;2023-04-25T13:08:13;16.50;99.90
57576;DHT22;43412;-33.800;150.804;2023-04-25T13:10:41;16.40;99.90
57576;DHT22;43412;-33.800;150.804;2023-04-25T13:13:08;16.40;99.90
57576;DHT22;43412;-33.800;150.804;2023-04-25T13:15:36;16.30;99.90
57576;DHT22;43412;-33.800;150.804;2023-04-25T13:18:04;16.30;99.90
57576;DHT22;43412;-33.800;150.804;2023-04-25T13:20:32;16.20;99.90
57576;DHT22;43412;-33.800;150.804;2023-04-25T13:22:59;16.20;99.90
57576;DHT22;43412;-33.800;150.804;2023-04-25T13:25:27;16.10;99.90
57576;DHT22;43412;-33.800;150.804;2023-04-25T13:27:54;16.10;99.90
57576;DHT22;43412;-33.800;150.804;2023-04-25T13:30:22;16.00;99.90
57576;DHT22;43412;-33.800;150.804;2023-04-25T13:32:50;16.00;99.90
57576;DHT22;43412;-33.800;150.804;2023-04-25T13:35:21;16.00;99.90
57576;DHT22;43412;-33.800;150.804;2023-04-25T13:37:48;16.00;99.90
57576;DHT22;43412;-33.800;150.804;2023-04-25T13:40:16;16.00;99.90
57576;DHT22;43412;-33.800;150.804;2023-04-25T13:42:43;16.00;99.90
57576;DHT22;43412;-33.800;150.804;2023-04-25T13:45:11;15.90;99.90
57576;DHT22;43412;-33.800;150.804;2023-04-25T13:47:39;15.90;99.90
57576;DHT22;43412;-33.800;150.804;2023-04-25T13:50:07;15.80;99.90
57576;DHT22;43412;-33.800;150.804;2023-04-25T13:52:34;15.80;99.90
57576;DHT22;43412;-33.800;150.804;2023-04-25T13:55:02;15.80;99.90
57576;DHT22;43412;-33.800;150.804;2023-04-25T13:57:34;15.90;99.90
57576;DHT22;43412;-33.800;150.804;2023-04-25T14:00:04;15.90;99.90
57576;DHT22;43412;-33.800;150.804;2023-04-25T14:02:38;15.90;99.90
57576;DHT22;43412;-33.800;150.804;2023-04-25T14:05:06;15.90;99.90
57576;DHT22;43412;-33.800;150.804;2023-04-25T14:07:34;15.90;99.90
57576;DHT22;43412;-33.800;150.804;2023-04-25T14:10:03;15.90;99.90
57576;DHT22;43412;-33.800;150.804;2023-04-25T14:12:32;15.90;99.90
57576;DHT22;43412;-33.800;150.804;2023-04-25T14:14:59;15.90;99.90
57576;DHT22;43412;-33.800;150.804;2023-04-25T14:17:27;15.90;99.90
57576;DHT22;43412;-33.800;150.804;2023-04-25T14:19:57;15.90;99.90
57576;DHT22;43412;-33.800;150.804;2023-04-25T14:22:24;15.90;99.90
57576;DHT22;43412;-33.800;150.804;2023-04-25T14:24:52;16.00;99.90
57576;DHT22;43412;-33.800;150.804;2023-04-25T14:27:20;16.00;99.90
57576;DHT22;43412;-33.800;150.804;2023-04-25T14:29:47;16.00;99.90
57576;DHT22;43412;-33.800;150.804;2023-04-25T14:32:14;16.00;99.90
57576;DHT22;43412;-33.800;150.804;2023-04-25T14:34:42;16.00;99.90
57576;DHT22;43412;-33.800;150.804;2023-04-25T14:37:09;16.00;99.90
57576;DHT22;43412;-33.800;150.804;2023-04-25T14:39:36;16.00;99.90
57576;DHT22;43412;-33.800;150.804;2023-04-25T14:42:04;16.00;99.90
57576;DHT22;43412;-33.800;150.804;2023-04-25T14:44:31;16.00;99.90
57576;DHT22;43412;-33.800;150.804;2023-04-25T14:46:59;16.00;99.90
57576;DHT22;43412;-33.800;150.804;2023-04-25T14:49:26;15.90;99.90
57576;DHT22;43412;-33.800;150.804;2023-04-25T14:51:54;15.80;99.90
57576;DHT22;43412;-33.800;150.804;2023-04-25T14:54:22;15.80;99.90
57576;DHT22;43412;-33.800;150.804;2023-04-25T14:56:49;15.80;99.90
57576;DHT22;43412;-33.800;150.804;2023-04-25T14:59:16;15.70;99.90